WST516 MYAK-MYNN
Flight info
| Callsign | WST516 |
|---|---|
| Flight time | 0h 18m |
| Altitude | 7000 |
| Route | JEFRY DCT ZQA |
| Aircraft | E145/M-SDFGIRW/S |
Departure
| Time | 2026-05-05 17:54 |
|---|---|
| Airport | Congo Town Airport (MYAK) |
Arrival
| Time | 2026-05-05 18:12 |
|---|---|
| Airport | Lynden Pindling International Airport (MYNN) |
| Time | Latitude | Longitude | Altitude | Speed | Heading |
|---|---|---|---|---|---|
| 2026-05-05 17:38 | 24.15663 | -77.58425 | 38 ft | 0 kts | 81° |
| 2026-05-05 17:49 | 24.15664 | -77.58421 | 38 ft | 1 kts | 63° |
| 2026-05-05 17:49 | 24.15681 | -77.58415 | 38 ft | 5 kts | 354° |
| 2026-05-05 17:49 | 24.15748 | -77.58410 | 39 ft | 11 kts | 343° |
| 2026-05-05 17:50 | 24.15796 | -77.58539 | 42 ft | 27 kts | 279° |
| 2026-05-05 17:50 | 24.15842 | -77.58828 | 40 ft | 49 kts | 278° |
| 2026-05-05 17:50 | 24.15914 | -77.59227 | 40 ft | 48 kts | 282° |
| 2026-05-05 17:50 | 24.15956 | -77.59457 | 36 ft | 27 kts | 280° |
| 2026-05-05 17:51 | 24.15968 | -77.59524 | 36 ft | 4 kts | 282° |
| 2026-05-05 17:51 | 24.15981 | -77.59602 | 36 ft | 16 kts | 277° |
| 2026-05-05 17:51 | 24.16008 | -77.59744 | 37 ft | 13 kts | 282° |
| 2026-05-05 17:51 | 24.16016 | -77.59755 | 38 ft | 1 kts | 17° |
| 2026-05-05 17:52 | 24.16019 | -77.59744 | 38 ft | 2 kts | 94° |
| 2026-05-05 17:52 | 24.16018 | -77.59740 | 38 ft | 0 kts | 96° |
| 2026-05-05 17:52 | 24.16017 | -77.59734 | 37 ft | 1 kts | 98° |
| 2026-05-05 17:52 | 24.16017 | -77.59733 | 37 ft | 0 kts | 98° |
| 2026-05-05 17:53 | 24.16013 | -77.59708 | 37 ft | 22 kts | 102° |
| 2026-05-05 17:53 | 24.15927 | -77.59243 | 40 ft | 98 kts | 101° |
| 2026-05-05 17:53 | 24.15746 | -77.58318 | 120 ft | 141 kts | 103° |
| 2026-05-05 17:53 | 24.15583 | -77.57244 | 551 ft | 149 kts | 97° |
| 2026-05-05 17:54 | 24.15536 | -77.56110 | 994 ft | 155 kts | 92° |
| 2026-05-05 17:54 | 24.15529 | -77.54894 | 1361 ft | 170 kts | 91° |
| 2026-05-05 17:54 | 24.15731 | -77.53561 | 1671 ft | 192 kts | 59° |
| 2026-05-05 17:54 | 24.16096 | -77.53043 | 1824 ft | 200 kts | 41° |
| 2026-05-05 17:55 | 24.17040 | -77.52494 | 2088 ft | 214 kts | 14° |
| 2026-05-05 17:55 | 24.18591 | -77.52228 | 2384 ft | 236 kts | 358° |
| 2026-05-05 17:55 | 24.20278 | -77.52509 | 2681 ft | 258 kts | 345° |
| 2026-05-05 17:55 | 24.22032 | -77.53024 | 3049 ft | 255 kts | 342° |
| 2026-05-05 17:56 | 24.23698 | -77.53567 | 3567 ft | 239 kts | 341° |
| 2026-05-05 17:56 | 24.25220 | -77.54075 | 4126 ft | 222 kts | 341° |
| 2026-05-05 17:56 | 24.26629 | -77.54549 | 4675 ft | 204 kts | 340° |
| 2026-05-05 17:56 | 24.27926 | -77.54985 | 5221 ft | 184 kts | 339° |
| 2026-05-05 17:57 | 24.28850 | -77.55296 | 5632 ft | 165 kts | 338° |
| 2026-05-05 17:57 | 24.29756 | -77.55601 | 6055 ft | 142 kts | 338° |
| 2026-05-05 17:57 | 24.30709 | -77.55896 | 5959 ft | 165 kts | 344° |
| 2026-05-05 17:57 | 24.31937 | -77.56301 | 6043 ft | 189 kts | 336° |
| 2026-05-05 17:58 | 24.33203 | -77.56757 | 6497 ft | 193 kts | 339° |
| 2026-05-05 17:58 | 24.34508 | -77.57206 | 6855 ft | 202 kts | 339° |
| 2026-05-05 17:58 | 24.35947 | -77.57697 | 6956 ft | 230 kts | 339° |
| 2026-05-05 17:58 | 24.37577 | -77.58250 | 6958 ft | 259 kts | 340° |
| 2026-05-05 17:59 | 24.39395 | -77.58863 | 6956 ft | 286 kts | 340° |
| 2026-05-05 17:59 | 24.41384 | -77.59535 | 6950 ft | 310 kts | 340° |
| 2026-05-05 17:59 | 24.43514 | -77.60255 | 6947 ft | 331 kts | 340° |
| 2026-05-05 17:59 | 24.45705 | -77.60995 | 6933 ft | 314 kts | 340° |
| 2026-05-05 18:00 | 24.47702 | -77.61671 | 6919 ft | 291 kts | 340° |
| 2026-05-05 18:00 | 24.49568 | -77.62302 | 6923 ft | 271 kts | 340° |
| 2026-05-05 18:00 | 24.51329 | -77.62899 | 6923 ft | 253 kts | 339° |
| 2026-05-05 18:00 | 24.52953 | -77.63449 | 6922 ft | 236 kts | 339° |
| 2026-05-05 18:01 | 24.54472 | -77.63964 | 6920 ft | 222 kts | 339° |
| 2026-05-05 18:01 | 24.55972 | -77.64474 | 6943 ft | 228 kts | 339° |
| 2026-05-05 18:01 | 24.57545 | -77.64919 | 6935 ft | 241 kts | 353° |
| 2026-05-05 18:01 | 24.59252 | -77.64548 | 6765 ft | 264 kts | 25° |
| 2026-05-05 18:02 | 24.60653 | -77.63198 | 6583 ft | 280 kts | 52° |
| 2026-05-05 18:02 | 24.61972 | -77.61541 | 6374 ft | 291 kts | 44° |
| 2026-05-05 18:02 | 24.63433 | -77.59952 | 6148 ft | 300 kts | 43° |
| 2026-05-05 18:02 | 24.64889 | -77.58395 | 5910 ft | 289 kts | 43° |
| 2026-05-05 18:03 | 24.66311 | -77.56881 | 5660 ft | 280 kts | 43° |
| 2026-05-05 18:03 | 24.67689 | -77.55414 | 5413 ft | 272 kts | 43° |
| 2026-05-05 18:03 | 24.69041 | -77.53974 | 5159 ft | 265 kts | 43° |
| 2026-05-05 18:03 | 24.70344 | -77.52586 | 4921 ft | 259 kts | 43° |
| 2026-05-05 18:04 | 24.71639 | -77.51207 | 4679 ft | 254 kts | 43° |
| 2026-05-05 18:04 | 24.72883 | -77.49881 | 4438 ft | 250 kts | 43° |
| 2026-05-05 18:04 | 24.74126 | -77.48556 | 4196 ft | 246 kts | 43° |
| 2026-05-05 18:04 | 24.75368 | -77.47232 | 3767 ft | 251 kts | 43° |
| 2026-05-05 18:05 | 24.76632 | -77.45883 | 3299 ft | 257 kts | 43° |
| 2026-05-05 18:05 | 24.77920 | -77.44509 | 2828 ft | 262 kts | 44° |
| 2026-05-05 18:05 | 24.79236 | -77.43105 | 2352 ft | 265 kts | 44° |
| 2026-05-05 18:05 | 24.80571 | -77.41680 | 1989 ft | 262 kts | 44° |
| 2026-05-05 18:06 | 24.81839 | -77.40326 | 1948 ft | 247 kts | 44° |
| 2026-05-05 18:06 | 24.82649 | -77.39460 | 1942 ft | 236 kts | 44° |
| 2026-05-05 18:06 | 24.84145 | -77.37862 | 1943 ft | 217 kts | 44° |
| 2026-05-05 18:06 | 24.85200 | -77.36734 | 1942 ft | 204 kts | 44° |
| 2026-05-05 18:07 | 24.86192 | -77.35674 | 1964 ft | 188 kts | 44° |
| 2026-05-05 18:07 | 24.87093 | -77.34710 | 1938 ft | 173 kts | 44° |
| 2026-05-05 18:07 | 24.87953 | -77.33791 | 1960 ft | 174 kts | 44° |
| 2026-05-05 18:07 | 24.88831 | -77.32851 | 1963 ft | 177 kts | 45° |
| 2026-05-05 18:08 | 24.89856 | -77.32136 | 1959 ft | 178 kts | 10° |
| 2026-05-05 18:08 | 24.91050 | -77.32327 | 1976 ft | 179 kts | 333° |
| 2026-05-05 18:08 | 24.92218 | -77.32927 | 2023 ft | 184 kts | 334° |
| 2026-05-05 18:08 | 24.93382 | -77.33559 | 1957 ft | 186 kts | 327° |
| 2026-05-05 18:09 | 24.94348 | -77.34485 | 1955 ft | 183 kts | 311° |
| 2026-05-05 18:09 | 24.95145 | -77.35517 | 1939 ft | 170 kts | 306° |
| 2026-05-05 18:09 | 24.95846 | -77.36540 | 1891 ft | 163 kts | 304° |
| 2026-05-05 18:09 | 24.96504 | -77.37537 | 1801 ft | 160 kts | 304° |
| 2026-05-05 18:10 | 24.97165 | -77.38555 | 1595 ft | 165 kts | 303° |
| 2026-05-05 18:10 | 24.97939 | -77.39507 | 1370 ft | 170 kts | 313° |
| 2026-05-05 18:10 | 24.98774 | -77.40433 | 1200 ft | 169 kts | 312° |
| 2026-05-05 18:10 | 24.99605 | -77.41358 | 979 ft | 172 kts | 313° |
| 2026-05-05 18:11 | 25.00453 | -77.42302 | 725 ft | 175 kts | 313° |
| 2026-05-05 18:11 | 25.01321 | -77.43269 | 464 ft | 178 kts | 312° |
| 2026-05-05 18:11 | 25.02155 | -77.44198 | 203 ft | 156 kts | 312° |
| 2026-05-05 18:11 | 25.02859 | -77.44981 | 68 ft | 135 kts | 312° |
| 2026-05-05 18:12 | 25.03513 | -77.45714 | 24 ft | 128 kts | 313° |
| 2026-05-05 18:12 | 25.04031 | -77.46291 | 23 ft | 70 kts | 316° |
| 2026-05-05 18:12 | 25.04223 | -77.46513 | 21 ft | 27 kts | 319° |
| 2026-05-05 18:12 | 25.04281 | -77.46564 | 21 ft | 12 kts | 314° |
| 2026-05-05 18:13 | 25.04371 | -77.46667 | 22 ft | 25 kts | 317° |
| 2026-05-05 18:13 | 25.04514 | -77.46666 | 23 ft | 27 kts | 45° |
| 2026-05-05 18:13 | 25.04670 | -77.46735 | 23 ft | 17 kts | 343° |
| 2026-05-05 18:13 | 25.04763 | -77.46687 | 24 ft | 18 kts | 49° |
| 2026-05-05 18:14 | 25.04830 | -77.46601 | 27 ft | 5 kts | 61° |
| 2026-05-05 18:14 | 25.04835 | -77.46585 | 28 ft | 2 kts | 40° |
| 2026-05-05 18:14 | 25.04838 | -77.46583 | 28 ft | 0 kts | 37° |